LKZ weather

RAF Lakenheath
Lakenheath, England, United Kingdom

Public forecast

Using degrees Celsius for public forecast. Weather courtesy of forecast.io.

METAR (pilot weather report)

Retrieved 2019/04/22 02:56 UTC (52 minutes ago):

EGUL 220256Z AUTO 00000KT 9999 CLR 03/01 A2985 RMK AO2 SLP111 T00310005 57025 $

TAF (pilot weather forecast)

Forecast is more than 12 hours old.

Retrieved 2019/04/18 04:06 UTC (4 days ago):

TAF EGUL 180401Z 1804/1910 VRB06KT 0400 FG VV000 QNH3020INS TEMPO 1804/1808 0200 FG VV000 BECMG 1807/1808 07006KT 3200 BR SCT003 QNH3021INS BECMG 1808/1809 09012KT 9999 NSW FEW050 QNH3023INS BECMG 1900/1901 07006KT 8000 BR SKC QNH3032INS BECMG 1907/1908 08009KT 9999 NSW FEW050 QNH3037INS TX19/1814Z TN07/1904Z